Time;durP1;ratioP1;P1;durP2;ratioP2;P2;SDS_P1;SDS_P2;PMS_P1;PMS_P2;Temp;Humidity;BMP_temperature;BMP_pressure;BME280_temperature;BME280_humidity;BME280_pressure;Samples;Min_cycle;Max_cycle;Signal;HPM_P1;HPM_P2
2022/05/09 00:01:31;;;;;;;6.13;4.40;;;;;;;11.49;nan;-24137.94;4892385;29;20228;-73
2022/05/09 00:03:57;;;;;;;5.97;4.37;;;;;;;11.76;nan;-24145.41;4892495;29;20204;-73
2022/05/09 00:06:24;;;;;;;10.57;4.90;;;;;;;11.56;nan;-24139.91;4891958;29;21990;-73
2022/05/09 00:08:50;;;;;;;8.70;4.30;;;;;;;11.79;nan;-24146.38;4877740;29;20306;-73
2022/05/09 00:11:16;;;;;;;8.93;4.77;;;;;;;11.35;nan;-24133.97;4891510;29;20252;-73
2022/05/09 00:13:42;;;;;;;9.23;4.77;;;;;;;11.42;nan;-24136.09;4894026;29;20190;-73
2022/05/09 00:16:08;;;;;;;6.30;4.67;;;;;;;11.58;nan;-24140.47;4893794;29;20648;-73
2022/05/09 00:18:33;;;;;;;10.07;5.50;;;;;;;11.26;nan;-24131.44;4892939;29;20679;-73
2022/05/09 00:20:59;;;;;;;10.47;5.07;;;;;;;11.47;nan;-24137.34;4894669;29;20219;-73
2022/05/09 00:23:24;;;;;;;13.07;5.07;;;;;;;11.43;nan;-24136.38;4892614;29;20622;-73
2022/05/09 00:25:50;;;;;;;8.77;4.93;;;;;;;11.38;nan;-24134.81;4877325;29;20629;-71
2022/05/09 00:28:16;;;;;;;10.37;5.07;;;;;;;11.45;nan;-24136.94;4891620;29;20881;-72
2022/05/09 00:30:41;;;;;;;9.67;5.30;;;;;;;10.87;nan;-24120.72;4892520;29;20196;-72
2022/05/09 00:33:07;;;;;;;7.23;5.03;;;;;;;11.10;nan;-24126.94;4906384;29;20188;-72
2022/05/09 00:35:32;;;;;;;6.43;4.73;;;;;;;11.16;nan;-24128.75;4893695;29;20192;-72
2022/05/09 00:37:58;;;;;;;8.57;4.73;;;;;;;11.16;nan;-24128.63;4894214;29;20183;-72
2022/05/09 00:40:23;;;;;;;7.20;4.97;;;;;;;11.27;nan;-24131.88;4893987;29;20183;-72
2022/05/09 00:42:51;;;;;;;9.60;4.50;;;;;;;11.39;nan;-24135.25;4899189;29;20633;-72
2022/05/09 00:45:19;;;;;;;7.30;4.73;;;;;;;11.13;nan;-24127.91;4898554;29;20188;-73
2022/05/09 00:47:46;;;;;;;5.63;4.53;;;;;;;11.30;nan;-24132.72;4889425;29;20219;-73
2022/05/09 00:50:17;;;;;;;9.80;4.83;;;;;;;11.28;nan;-24132.00;4891917;29;21790;-72
2022/05/09 00:52:51;;;;;;;8.40;4.70;;;;;;;11.21;nan;-24130.19;4890932;29;20606;-72
2022/05/09 00:55:28;;;;;;;6.23;4.30;;;;;;;11.28;nan;-24132.00;4892808;29;20199;-73
2022/05/09 00:58:03;;;;;;;9.53;4.97;;;;;;;11.25;nan;-24131.16;4893550;29;20695;-73
2022/05/09 01:00:28;;;;;;;8.13;4.67;;;;;;;10.89;nan;-24121.16;4893681;29;20334;-73
2022/05/09 01:03:01;;;;;;;8.57;4.60;;;;;;;11.21;nan;-24130.19;4896422;29;20232;-73
2022/05/09 01:05:30;;;;;;;8.93;4.83;;;;;;;10.97;nan;-24123.53;4895098;29;20188;-73
2022/05/09 01:07:57;;;;;;;7.50;4.90;;;;;;;10.83;nan;-24119.59;4895388;29;20204;-73
2022/05/09 01:10:30;;;;;;;7.67;4.60;;;;;;;11.02;nan;-24124.97;4895042;29;20600;-73
2022/05/09 01:12:55;;;;;;;8.00;4.90;;;;;;;11.01;nan;-24124.53;4889332;29;20183;-73
2022/05/09 01:15:22;;;;;;;7.33;5.10;;;;;;;11.03;nan;-24125.09;4892867;29;20187;-73
2022/05/09 01:17:50;;;;;;;8.60;5.10;;;;;;;11.06;nan;-24125.94;4894328;29;20188;-72
2022/05/09 01:20:17;;;;;;;7.33;4.70;;;;;;;10.86;nan;-24120.31;4893294;29;20199;-72
2022/05/09 01:22:42;;;;;;;9.77;4.60;;;;;;;11.05;nan;-24125.81;4892659;29;20251;-72
2022/05/09 01:25:22;;;;;;;7.40;4.70;;;;;;;11.06;nan;-24126.09;4895347;29;20184;-78
2022/05/09 01:27:50;;;;;;;8.23;5.30;;;;;;;10.98;nan;-24123.69;4896448;29;20199;-75
2022/05/09 01:30:54;;;;;;;9.60;5.27;;;;;;;10.96;nan;-24123.25;4897055;29;20229;-74
2022/05/09 01:33:46;;;;;;;7.33;4.83;;;;;;;10.81;nan;-24119.03;4896688;29;20199;-76
2022/05/09 01:36:20;;;;;;;11.40;4.70;;;;;;;10.66;nan;-24114.66;4896672;29;20654;-73
2022/05/09 01:38:48;;;;;;;10.80;5.10;;;;;;;10.94;nan;-24122.56;4893592;29;20188;-72
2022/05/09 01:41:14;;;;;;;7.17;5.20;;;;;;;10.98;nan;-24123.84;4895866;29;20187;-72
2022/05/09 01:43:43;;;;;;;8.50;5.43;;;;;;;10.93;nan;-24122.28;4895089;29;20732;-72
2022/05/09 01:46:12;;;;;;;9.03;5.00;;;;;;;10.81;nan;-24119.03;4896773;29;20200;-72
2022/05/09 01:51:23;;;;;;;10.63;5.13;;;;;;;10.91;nan;-24121.72;4893327;29;20573;-72
2022/05/09 01:53:51;;;;;;;11.40;5.40;;;;;;;10.76;nan;-24117.47;4895237;29;20196;-72
2022/05/09 01:56:25;;;;;;;9.30;5.87;;;;;;;10.81;nan;-24119.03;4895262;29;20663;-72
2022/05/09 01:58:51;;;;;;;8.40;5.63;;;;;;;10.65;nan;-24114.53;4895932;29;20681;-73
2022/05/09 02:01:18;;;;;;;10.93;5.97;;;;;;;10.55;nan;-24111.69;4895290;29;20318;-72
2022/05/09 02:03:47;;;;;;;10.13;5.43;;;;;;;10.68;nan;-24115.38;4902801;29;20200;-72
2022/05/09 02:06:23;;;;;;;6.87;5.27;;;;;;;10.69;nan;-24115.50;4892605;29;20211;-72
2022/05/09 02:08:49;;;;;;;9.73;5.40;;;;;;;10.77;nan;-24117.91;4895553;29;20211;-72
2022/05/09 02:11:15;;;;;;;10.60;5.80;;;;;;;10.47;nan;-24109.59;4896136;29;20219;-72
2022/05/09 02:13:41;;;;;;;10.97;5.47;;;;;;;10.50;nan;-24110.44;4894999;29;20299;-72
2022/05/09 02:16:07;;;;;;;11.90;5.80;;;;;;;10.29;nan;-24104.50;4896104;29;20192;-72
2022/05/09 02:18:34;;;;;;;10.67;5.60;;;;;;;10.62;nan;-24113.69;4895532;29;20184;-72
2022/05/09 02:20:59;;;;;;;8.63;5.70;;;;;;;10.30;nan;-24104.78;4895121;29;20666;-73
2022/05/09 02:23:24;;;;;;;9.70;6.13;;;;;;;10.46;nan;-24109.31;4895055;29;20195;-73
2022/05/09 02:25:50;;;;;;;14.30;6.27;;;;;;;10.45;nan;-24109.03;4896200;29;20202;-73
2022/05/09 02:28:15;;;;;;;14.57;6.47;;;;;;;10.45;nan;-24109.03;4895252;29;20207;-74
2022/05/09 02:30:42;;;;;;;11.00;6.30;;;;;;;10.44;nan;-24108.59;4895644;29;20191;-72
2022/05/09 02:33:09;;;;;;;10.23;6.47;;;;;;;10.30;nan;-24104.78;4895085;29;20200;-73
2022/05/09 02:35:36;;;;;;;9.37;6.40;;;;;;;10.14;nan;-24100.41;4893260;29;20180;-72
2022/05/09 02:38:02;;;;;;;9.17;6.00;;;;;;;10.01;nan;-24096.72;4895654;29;20180;-72
2022/05/09 02:40:28;;;;;;;12.83;6.67;;;;;;;10.03;nan;-24097.31;4894318;29;20271;-72
2022/05/09 02:42:57;;;;;;;12.37;6.40;;;;;;;9.80;nan;-24090.66;4891828;29;20192;-72
2022/05/09 02:45:23;;;;;;;12.07;6.07;;;;;;;9.76;nan;-24089.81;4890224;29;20180;-72
2022/05/09 02:47:49;;;;;;;11.17;6.13;;;;;;;9.57;nan;-24084.31;4891279;29;20214;-72
2022/05/09 02:50:15;;;;;;;15.00;7.40;;;;;;;9.71;nan;-24088.41;4896062;29;20644;-72
2022/05/09 02:52:42;;;;;;;11.50;6.50;;;;;;;9.59;nan;-24084.88;4892499;29;20183;-73
2022/05/09 02:55:10;;;;;;;12.63;6.87;;;;;;;9.55;nan;-24083.75;4891716;29;20571;-73
2022/05/09 02:57:36;;;;;;;11.17;6.97;;;;;;;9.43;nan;-24080.34;4892176;29;20184;-73
2022/05/09 03:00:05;;;;;;;10.50;6.50;;;;;;;9.39;nan;-24079.22;4892889;29;20199;-73
2022/05/09 03:02:31;;;;;;;12.17;7.20;;;;;;;9.61;nan;-24085.56;4895100;29;20259;-72
2022/05/09 03:04:57;;;;;;;13.47;6.70;;;;;;;9.67;nan;-24087.13;4898102;29;20235;-74
2022/05/09 03:07:22;;;;;;;12.03;7.17;;;;;;;9.47;nan;-24081.47;4915315;29;20203;-72
2022/05/09 03:09:49;;;;;;;12.17;7.57;;;;;;;9.42;nan;-24080.06;4894198;29;20187;-72
2022/05/09 03:12:18;;;;;;;12.03;6.90;;;;;;;9.14;nan;-24072.28;4899910;29;20229;-75
2022/05/09 03:14:44;;;;;;;13.50;8.00;;;;;;;9.51;nan;-24082.75;4890265;29;20197;-73
2022/05/09 03:17:10;;;;;;;11.67;7.50;;;;;;;9.10;nan;-24071.31;4889946;29;20216;-72
2022/05/09 03:19:36;;;;;;;13.83;7.53;;;;;;;9.29;nan;-24076.53;4891746;29;20224;-72
2022/05/09 03:22:01;;;;;;;13.47;7.47;;;;;;;9.30;nan;-24076.94;4887905;29;20243;-73
2022/05/09 03:24:27;;;;;;;10.37;7.37;;;;;;;9.11;nan;-24071.44;4887955;29;20748;-72
2022/05/09 03:26:53;;;;;;;12.63;7.30;;;;;;;9.58;nan;-24084.72;4872037;29;20188;-74
2022/05/09 03:29:19;;;;;;;14.07;7.63;;;;;;;9.95;nan;-24094.91;4888900;29;20180;-73
2022/05/09 03:31:47;;;;;;;15.53;7.60;;;;;;;9.73;nan;-24088.97;4891782;29;20211;-73
2022/05/09 03:34:19;;;;;;;13.93;8.13;;;;;;;10.39;nan;-24107.31;4892116;29;20219;-77
2022/05/09 03:36:47;;;;;;;14.17;7.67;;;;;;;10.94;nan;-24122.69;4893053;29;20926;-74
2022/05/09 03:39:14;;;;;;;10.83;6.87;;;;;;;11.17;nan;-24129.03;4891739;29;20199;-73
2022/05/09 03:41:39;;;;;;;9.57;6.63;;;;;;;11.27;nan;-24131.88;4871472;29;20184;-74
2022/05/09 03:44:06;;;;;;;11.03;6.70;;;;;;;11.10;nan;-24126.94;4888666;29;20672;-74
2022/05/09 03:46:32;;;;;;;12.53;6.43;;;;;;;11.49;nan;-24137.94;4889624;29;20195;-74
2022/05/09 03:49:11;;;;;;;9.17;5.87;;;;;;;11.88;nan;-24148.78;4892295;29;20618;-74
2022/05/09 03:51:38;;;;;;;9.03;6.20;;;;;;;12.38;nan;-24162.84;4890810;29;20583;-73
2022/05/09 03:54:03;;;;;;;9.43;5.85;;;;;;;13.88;nan;-24204.44;4890806;29;20184;-73
2022/05/09 03:56:29;;;;;;;11.73;5.85;;;;;;;15.22;nan;-24241.47;4890990;29;20211;-68
2022/05/09 03:58:54;;;;;;;8.15;5.22;;;;;;;16.16;nan;-24267.50;4891984;29;20240;-68
2022/05/09 04:01:20;;;;;;;11.95;6.07;;;;;;;16.92;nan;-24288.63;4892511;29;20306;-66
2022/05/09 04:03:46;;;;;;;10.63;5.53;;;;;;;17.17;nan;-24295.59;4890782;29;20188;-69
2022/05/09 04:06:12;;;;;;;9.80;5.57;;;;;;;17.53;nan;-24305.50;4890290;29;20188;-66
2022/05/09 04:08:38;;;;;;;10.57;5.70;;;;;;;18.45;nan;-24330.88;4891433;29;20215;-68
2022/05/09 04:11:03;;;;;;;8.23;5.72;;;;;;;19.06;nan;-24347.59;4891063;29;20191;-68
2022/05/09 04:13:29;;;;;;;10.50;5.60;;;;;;;19.59;nan;-24362.06;4890548;29;20199;-68
2022/05/09 04:18:41;;;;;;;14.40;6.13;;;;;;;19.55;nan;-24361.09;4893555;29;20203;-67
2022/05/09 04:21:08;;;;;;;12.63;5.90;;;;;;;19.68;nan;-24364.56;4892582;29;20718;-66
2022/05/09 04:23:33;;;;;;;10.82;5.85;;;;;;;19.95;nan;-24371.94;4895490;29;20184;-66
2022/05/09 04:26:00;;;;;;;12.02;6.20;;;;;;;19.97;nan;-24372.50;4893853;29;20191;-66
2022/05/09 04:28:25;;;;;;;11.45;6.35;;;;;;;20.23;nan;-24379.84;4897214;29;20215;-65
2022/05/09 04:30:51;;;;;;;9.40;6.28;;;;;;;20.87;nan;-24397.34;4898612;29;20181;-66
2022/05/09 04:33:17;;;;;;;11.50;5.80;;;;;;;20.79;nan;-24394.97;4901642;29;20184;-67
2022/05/09 04:35:43;;;;;;;9.55;6.18;;;;;;;20.60;nan;-24389.84;4897003;29;20195;-67
2022/05/09 04:38:28;;;;;;;15.60;6.38;;;;;;;20.35;nan;-24383.03;4896533;29;20199;-66
2022/05/09 04:40:54;;;;;;;8.98;6.35;;;;;;;16.25;nan;-24270.03;4896678;29;20553;-66
2022/05/09 04:43:24;;;;;;;11.05;6.30;;;;;;;20.33;nan;-24382.50;4894316;29;20260;-66
2022/05/09 04:45:51;;;;;;;11.80;6.22;;;;;;;20.00;nan;-24373.31;4897448;29;20667;-66
2022/05/09 04:48:18;;;;;;;10.63;6.30;;;;;;;19.73;nan;-24366.09;4898035;29;20200;-65
2022/05/09 04:50:43;;;;;;;9.32;6.18;;;;;;;19.29;nan;-24353.84;4898143;29;20247;-67
2022/05/09 04:53:09;;;;;;;9.95;6.82;;;;;;;18.83;nan;-24341.31;4897125;29;20666;-66
2022/05/09 04:55:34;;;;;;;11.13;7.10;;;;;;;18.74;nan;-24338.69;4897140;29;20188;-67
2022/05/09 04:58:00;;;;;;;12.70;7.18;;;;;;;18.68;nan;-24337.16;4897421;29;20195;-66
2022/05/09 05:00:26;;;;;;;13.45;7.53;;;;;;;18.72;nan;-24338.25;4890259;29;20186;-67
2022/05/09 05:02:53;;;;;;;11.43;7.55;;;;;;;18.73;nan;-24338.41;4892499;29;20230;-67
2022/05/09 05:05:19;;;;;;;11.63;7.57;;;;;;;18.47;nan;-24331.44;4891335;29;20652;-67
2022/05/09 05:07:45;;;;;;;11.00;7.40;;;;;;;18.41;nan;-24329.75;4873361;29;20315;-67
2022/05/09 05:10:11;;;;;;;11.02;7.53;;;;;;;18.24;nan;-24325.03;4893278;29;20743;-67
2022/05/09 05:12:37;;;;;;;11.73;8.30;;;;;;;17.79;nan;-24312.47;4891738;29;20206;-67
2022/05/09 05:15:03;;;;;;;11.63;7.88;;;;;;;17.82;nan;-24313.31;4890051;29;20584;-67
2022/05/09 05:17:29;;;;;;;14.23;8.98;;;;;;;17.30;nan;-24299.09;4894260;29;20188;-66
2022/05/09 05:19:55;;;;;;;13.05;8.70;;;;;;;17.41;nan;-24302.16;4892145;29;20187;-66
2022/05/09 05:22:21;;;;;;;15.50;8.95;;;;;;;16.64;nan;-24280.78;4892461;29;20192;-67
2022/05/09 05:24:51;;;;;;;12.82;8.68;;;;;;;16.71;nan;-24282.88;4891145;29;20215;-66
2022/05/09 05:27:16;;;;;;;15.23;9.13;;;;;;;16.03;nan;-24263.88;4890506;29;20804;-67
2022/05/09 05:29:42;;;;;;;11.68;8.90;;;;;;;15.90;nan;-24260.50;4894740;29;20241;-66
2022/05/09 05:32:19;;;;;;;16.65;10.18;;;;;;;15.74;nan;-24255.91;4889199;29;20176;-66
2022/05/09 05:34:46;;;;;;;13.02;9.05;;;;;;;15.91;nan;-24260.66;4893271;29;20198;-66
2022/05/09 05:37:11;;;;;;;17.20;10.25;;;;;;;15.60;nan;-24252.13;4907985;29;20663;-67
2022/05/09 05:39:37;;;;;;;13.68;9.63;;;;;;;15.40;nan;-24246.50;4890895;29;20203;-67
2022/05/09 05:42:05;;;;;;;15.15;9.43;;;;;;;15.57;nan;-24251.28;4893737;29;20188;-66
2022/05/09 05:44:31;;;;;;;17.45;10.27;;;;;;;15.43;nan;-24247.34;4893100;29;20583;-69
2022/05/09 05:46:56;;;;;;;15.68;10.52;;;;;;;15.15;nan;-24239.50;4893428;29;20647;-68
2022/05/09 05:49:22;;;;;;;15.48;10.13;;;;;;;15.59;nan;-24251.84;4905950;29;20200;-68
2022/05/09 05:51:47;;;;;;;15.07;10.30;;;;;;;15.48;nan;-24248.91;4892968;29;20200;-69
2022/05/09 05:54:12;;;;;;;20.90;12.57;;;;;;;15.66;nan;-24253.66;4892013;29;20196;-72
2022/05/09 05:56:38;;;;;;;16.63;11.05;;;;;;;15.91;nan;-24260.78;4887501;29;21006;-73
2022/05/09 05:59:04;;;;;;;16.08;9.50;;;;;;;16.01;nan;-24263.31;4885656;29;20180;-72
2022/05/09 06:01:30;;;;;;;15.05;9.30;;;;;;;15.96;nan;-24261.91;4887250;29;20240;-72
2022/05/09 06:03:55;;;;;;;12.82;8.65;;;;;;;16.02;nan;-24263.59;4887773;29;20191;-72
2022/05/09 06:06:21;;;;;;;12.15;8.63;;;;;;;15.68;nan;-24254.22;4886469;29;20240;-73
2022/05/09 06:08:48;;;;;;;18.50;11.48;;;;;;;15.91;nan;-24260.66;4902564;29;20310;-73
2022/05/09 06:11:13;;;;;;;15.30;9.98;;;;;;;16.14;nan;-24266.94;4888217;29;20632;-73
2022/05/09 06:13:40;;;;;;;14.48;9.85;;;;;;;16.22;nan;-24269.31;4887991;29;20191;-73
2022/05/09 06:16:05;;;;;;;16.73;10.10;;;;;;;16.31;nan;-24271.69;4872074;29;20188;-73
2022/05/09 06:18:31;;;;;;;13.05;8.82;;;;;;;16.32;nan;-24271.97;4902796;29;20199;-73
2022/05/09 06:20:57;;;;;;;13.18;9.32;;;;;;;16.53;nan;-24277.84;4886256;29;20195;-73
2022/05/09 06:23:22;;;;;;;15.63;8.88;;;;;;;16.61;nan;-24279.94;4887793;29;20551;-73
2022/05/09 06:25:48;;;;;;;16.48;8.95;;;;;;;16.90;nan;-24288.06;4887606;29;20203;-73
2022/05/09 06:28:15;;;;;;;14.10;8.82;;;;;;;16.81;nan;-24285.41;4889942;29;20240;-73
2022/05/09 06:30:42;;;;;;;16.00;8.90;;;;;;;16.43;nan;-24275.06;4888277;29;20279;-73
2022/05/09 06:33:08;;;;;;;13.60;8.68;;;;;;;16.40;nan;-24274.22;4886807;29;20212;-73
2022/05/09 06:35:40;;;;;;;13.95;9.27;;;;;;;16.69;nan;-24282.31;4885757;29;20188;-73
2022/05/09 06:38:05;;;;;;;15.75;8.75;;;;;;;16.91;nan;-24288.34;4885796;29;20192;-72
2022/05/09 06:40:33;;;;;;;14.05;8.68;;;;;;;17.01;nan;-24291.00;4886402;29;20240;-73
2022/05/09 06:42:59;;;;;;;13.50;8.23;;;;;;;17.18;nan;-24295.72;4884675;29;20278;-73
2022/05/09 06:45:26;;;;;;;14.00;8.32;;;;;;;17.00;nan;-24290.72;4884674;29;20255;-73
2022/05/09 06:47:53;;;;;;;14.25;9.30;;;;;;;17.38;nan;-24301.19;4885142;29;20203;-74
2022/05/09 06:50:22;;;;;;;14.10;8.70;;;;;;;17.11;nan;-24293.78;4886198;29;20184;-72
2022/05/09 06:52:47;;;;;;;14.32;8.02;;;;;;;17.50;nan;-24304.53;4885661;29;20683;-73
2022/05/09 06:55:13;;;;;;;12.65;8.45;;;;;;;17.82;nan;-24313.47;4885621;29;20275;-73
2022/05/09 06:57:41;;;;;;;14.93;8.82;;;;;;;17.91;nan;-24315.81;4886170;29;20683;-74
2022/05/09 07:00:09;;;;;;;14.05;8.40;;;;;;;18.16;nan;-24322.66;4886556;29;20252;-73
2022/05/09 07:02:35;;;;;;;13.75;8.68;;;;;;;17.95;nan;-24317.09;4883845;29;20369;-73
2022/05/09 07:05:03;;;;;;;10.93;8.23;;;;;;;18.26;nan;-24325.59;4902310;29;20192;-72
2022/05/09 07:07:29;;;;;;;11.88;8.23;;;;;;;18.39;nan;-24329.22;4890086;29;20247;-74
2022/05/09 07:09:54;;;;;;;13.55;8.23;;;;;;;18.54;nan;-24333.38;4875237;29;20226;-74
2022/05/09 07:12:19;;;;;;;15.80;8.40;;;;;;;18.39;nan;-24329.22;4905855;29;20652;-74
2022/05/09 07:14:45;;;;;;;13.82;8.55;;;;;;;18.76;nan;-24339.38;4890950;29;20259;-75
2022/05/09 07:17:11;;;;;;;14.45;8.77;;;;;;;18.55;nan;-24333.53;4891542;29;20244;-73
2022/05/09 07:19:36;;;;;;;11.65;8.10;;;;;;;19.00;nan;-24345.78;4875795;29;20192;-73
2022/05/09 07:22:02;;;;;;;13.57;7.85;;;;;;;19.09;nan;-24348.44;4890259;29;20244;-73
2022/05/09 07:24:27;;;;;;;13.35;7.70;;;;;;;19.19;nan;-24351.06;4889252;29;20192;-73
2022/05/09 07:26:53;;;;;;;16.90;7.97;;;;;;;19.38;nan;-24356.50;4904279;29;20184;-73
2022/05/09 07:29:18;;;;;;;12.40;8.02;;;;;;;19.33;nan;-24354.97;4875313;29;20298;-74
2022/05/09 07:31:43;;;;;;;13.80;8.15;;;;;;;19.84;nan;-24369.00;4890012;29;20574;-73
2022/05/09 07:34:09;;;;;;;13.32;8.35;;;;;;;19.69;nan;-24364.97;4903579;29;20192;-74
2022/05/09 07:36:34;;;;;;;12.88;8.10;;;;;;;19.79;nan;-24367.63;4892451;29;20271;-74
2022/05/09 07:39:00;;;;;;;13.27;8.18;;;;;;;20.13;nan;-24377.06;4904802;29;20595;-74
2022/05/09 07:41:27;;;;;;;14.13;7.88;;;;;;;20.23;nan;-24379.84;4889480;29;20715;-74
2022/05/09 07:43:53;;;;;;;13.77;7.53;;;;;;;15.11;nan;-24238.53;4888758;29;20230;-74
2022/05/09 07:46:18;;;;;;;14.10;7.13;;;;;;;20.11;nan;-24376.50;4889276;29;22158;-74
2022/05/09 07:48:43;;;;;;;11.55;7.32;;;;;;;20.58;nan;-24389.44;4889506;29;20219;-73
2022/05/09 07:51:09;;;;;;;9.88;6.55;;;;;;;20.43;nan;-24385.13;4888458;29;20195;-74
2022/05/09 07:53:35;;;;;;;7.95;6.07;;;;;;;20.71;nan;-24393.03;4891293;29;20184;-71
2022/05/09 07:56:02;;;;;;;11.73;6.50;;;;;;;20.38;nan;-24383.88;4889610;29;20249;-71
2022/05/09 07:58:28;;;;;;;11.95;6.45;;;;;;;20.71;nan;-24393.03;4887059;29;20192;-71
2022/05/09 08:00:58;;;;;;;12.32;7.38;;;;;;;20.29;nan;-24381.38;4891168;29;20652;-72
2022/05/09 08:03:26;;;;;;;13.85;7.63;;;;;;;19.57;nan;-24361.66;4889178;29;20180;-71
2022/05/09 08:05:53;;;;;;;9.70;6.88;;;;;;;19.92;nan;-24371.22;4889521;29;20190;-72
2022/05/09 08:08:18;;;;;;;9.80;6.57;;;;;;;20.09;nan;-24375.97;4902622;29;20275;-71
2022/05/09 08:10:45;;;;;;;8.70;6.90;;;;;;;20.65;nan;-24391.38;4890263;29;20184;-71
2022/05/09 08:13:12;;;;;;;10.38;7.15;;;;;;;20.57;nan;-24389.16;4889996;29;20218;-71
2022/05/09 08:15:38;;;;;;;8.70;5.50;;;;;;;19.66;nan;-24364.16;4873852;29;20204;-65
2022/05/09 08:18:05;;;;;;;12.10;6.03;;;;;;;19.65;nan;-24363.72;4904401;29;20645;-68
2022/05/09 08:20:33;;;;;;;10.02;5.20;;;;;;;19.84;nan;-24369.16;4893106;29;20247;-68
2022/05/09 08:23:07;;;;;;;8.40;5.60;;;;;;;20.05;nan;-24374.84;4891787;29;20183;-68
2022/05/09 08:25:39;;;;;;;9.43;5.80;;;;;;;20.28;nan;-24381.22;4887746;29;21902;-67
2022/05/09 08:28:07;;;;;;;9.70;6.13;;;;;;;20.81;nan;-24395.53;4890783;29;20671;-68
2022/05/09 08:30:34;;;;;;;11.32;6.13;;;;;;;20.99;nan;-24400.53;4890436;29;20731;-67
2022/05/09 08:33:01;;;;;;;10.07;6.70;;;;;;;17.26;nan;-24297.81;4887473;29;20223;-69
2022/05/09 08:35:27;;;;;;;9.88;6.95;;;;;;;20.93;nan;-24398.88;4887426;29;20199;-68
2022/05/09 08:37:52;;;;;;;13.80;6.88;;;;;;;20.85;nan;-24396.78;4890413;29;20634;-67
2022/05/09 08:40:33;;;;;;;13.90;7.10;;;;;;;20.58;nan;-24389.28;4888461;29;20224;-69
2022/05/09 08:43:14;;;;;;;10.20;7.25;;;;;;;20.64;nan;-24390.97;4889915;29;20188;-68
2022/05/09 08:45:47;;;;;;;12.40;6.93;;;;;;;20.67;nan;-24391.94;4891391;29;20231;-67
2022/05/09 08:48:27;;;;;;;11.05;6.93;;;;;;;20.71;nan;-24392.91;4894476;29;20211;-67
2022/05/09 08:51:08;;;;;;;14.38;7.13;;;;;;;21.04;nan;-24401.91;4893054;29;20195;-67
2022/05/09 08:53:37;;;;;;;10.82;7.20;;;;;;;21.39;nan;-24411.50;4894680;29;20758;-67
2022/05/09 08:56:02;;;;;;;9.55;6.82;;;;;;;21.41;nan;-24412.03;4897034;29;20191;-68
2022/05/09 08:58:40;;;;;;;13.10;6.72;;;;;;;21.21;nan;-24406.63;4891616;29;20188;-68
2022/05/09 09:01:25;;;;;;;9.63;6.22;;;;;;;20.65;nan;-24391.22;4890376;29;20401;-67
2022/05/09 09:03:56;;;;;;;11.82;6.00;;;;;;;21.22;nan;-24406.78;4891628;29;20399;-68
2022/05/09 09:06:43;;;;;;;11.32;6.68;;;;;;;21.01;nan;-24401.22;4892711;29;20195;-67
2022/05/09 09:09:25;;;;;;;13.85;6.55;;;;;;;21.51;nan;-24414.94;4891442;29;20211;-67
2022/05/09 09:12:24;;;;;;;14.02;7.30;;;;;;;21.10;nan;-24403.56;4890352;29;20270;-67
2022/05/09 09:15:04;;;;;;;15.80;7.13;;;;;;;20.60;nan;-24389.97;4891584;29;20676;-67
2022/05/09 09:17:46;;;;;;;12.85;7.13;;;;;;;20.58;nan;-24389.28;4892017;29;20192;-67
2022/05/09 09:20:23;;;;;;;11.25;6.53;;;;;;;20.70;nan;-24392.63;4890783;29;20187;-68
2022/05/09 09:23:00;;;;;;;11.00;7.55;;;;;;;20.71;nan;-24393.03;4891082;29;20199;-68
2022/05/09 09:25:30;;;;;;;11.73;6.80;;;;;;;21.13;nan;-24404.56;4910991;29;20223;-67
2022/05/09 09:28:03;;;;;;;12.82;7.40;;;;;;;20.37;nan;-24383.47;4896743;29;20214;-67
2022/05/09 09:30:30;;;;;;;12.68;6.65;;;;;;;20.14;nan;-24377.34;4895273;29;20243;-68
2022/05/09 09:33:08;;;;;;;13.73;7.03;;;;;;;20.54;nan;-24388.31;4895355;29;20199;-68
2022/05/09 09:35:58;;;;;;;13.32;6.57;;;;;;;20.62;nan;-24390.41;4897090;29;20187;-68
2022/05/09 09:38:45;;;;;;;12.13;7.03;;;;;;;20.58;nan;-24389.44;4897901;29;20783;-67
2022/05/09 09:41:27;;;;;;;9.63;6.47;;;;;;;20.69;nan;-24392.47;4895963;29;20184;-67
2022/05/09 09:44:17;;;;;;;10.15;7.05;;;;;;;20.70;nan;-24392.63;4879278;29;20644;-67
2022/05/09 09:47:04;;;;;;;12.02;7.57;;;;;;;20.39;nan;-24384.03;4884191;29;20220;-68
2022/05/09 09:49:32;;;;;;;12.13;7.10;;;;;;;20.55;nan;-24388.47;4897457;29;20203;-68
2022/05/09 09:51:58;;;;;;;13.60;7.10;;;;;;;20.56;nan;-24388.88;4890097;29;20635;-68
2022/05/09 09:54:31;;;;;;;15.50;7.72;;;;;;;20.28;nan;-24381.22;4896854;29;20313;-68
2022/05/09 09:57:19;;;;;;;13.65;7.30;;;;;;;20.58;nan;-24389.44;4882183;29;20190;-65
2022/05/09 09:59:45;;;;;;;10.25;7.15;;;;;;;20.60;nan;-24389.84;4897331;29;20255;-67
2022/05/09 10:02:24;;;;;;;11.10;6.80;;;;;;;21.07;nan;-24402.88;4900856;29;20234;-67
2022/05/09 10:04:49;;;;;;;10.25;6.93;;;;;;;21.22;nan;-24406.78;4886439;29;20663;-68
2022/05/09 10:07:30;;;;;;;12.88;6.97;;;;;;;21.29;nan;-24408.72;4895783;29;20191;-66
2022/05/09 10:10:20;;;;;;;10.27;6.38;;;;;;;20.96;nan;-24399.84;4896273;29;20195;-68
2022/05/09 10:12:53;;;;;;;11.23;6.10;;;;;;;21.67;nan;-24419.09;4890669;29;20198;-67
2022/05/09 10:15:36;;;;;;;6.93;6.03;;;;;;;21.86;nan;-24424.50;4912064;29;20648;-67
2022/05/09 10:18:23;;;;;;;12.38;7.15;;;;;;;21.96;nan;-24427.28;4911790;29;20188;-67
2022/05/09 10:20:51;;;;;;;11.48;6.45;;;;;;;21.90;nan;-24425.47;4897007;29;20681;-67
2022/05/09 10:26:30;;;;;;;8.55;5.90;;;;;;;21.37;nan;-24410.94;4897107;29;20179;-66
2022/05/09 10:28:59;;;;;;;9.65;6.05;;;;;;;21.62;nan;-24417.84;4897222;29;20200;-68
2022/05/09 10:31:27;;;;;;;10.55;6.10;;;;;;;22.02;nan;-24428.81;4896355;29;20181;-68
2022/05/09 10:34:08;;;;;;;6.65;5.53;;;;;;;22.18;nan;-24433.22;4896350;29;20223;-67
2022/05/09 10:36:50;;;;;;;10.07;5.72;;;;;;;22.26;nan;-24435.44;4895746;29;21987;-68
2022/05/09 10:39:31;;;;;;;9.43;5.80;;;;;;;21.94;nan;-24426.72;4893362;29;20192;-67
2022/05/09 10:42:00;;;;;;;9.18;5.50;;;;;;;21.77;nan;-24421.88;4898198;29;20199;-66
2022/05/09 10:44:40;;;;;;;12.00;5.80;;;;;;;22.07;nan;-24430.03;4899378;29;20259;-66
2022/05/09 10:47:19;;;;;;;8.00;5.90;;;;;;;21.94;nan;-24426.72;4905754;29;20252;-66
2022/05/09 10:49:54;;;;;;;7.95;5.32;;;;;;;21.73;nan;-24420.91;4919279;29;20172;-68
2022/05/09 10:52:46;;;;;;;8.40;5.07;;;;;;;22.15;nan;-24432.41;4880931;29;20164;-65
2022/05/09 10:55:33;;;;;;;9.48;5.85;;;;;;;22.24;nan;-24434.75;4881421;29;20274;-67
2022/05/09 10:58:08;;;;;;;9.55;5.50;;;;;;;22.72;nan;-24448.03;4881458;29;20228;-68
2022/05/09 11:00:37;;;;;;;11.90;5.40;;;;;;;22.95;nan;-24454.13;4895776;29;20532;-67
2022/05/09 11:03:26;;;;;;;9.68;5.30;;;;;;;22.75;nan;-24448.72;4868167;29;20188;-66
2022/05/09 11:06:17;;;;;;;7.97;5.05;;;;;;;22.82;nan;-24450.81;4898834;29;20243;-65
2022/05/09 11:08:58;;;;;;;6.18;4.95;;;;;;;23.28;nan;-24463.25;4899712;29;20218;-67
2022/05/09 11:11:48;;;;;;;7.60;4.88;;;;;;;23.54;nan;-24470.28;4899635;29;20184;-65
2022/05/09 11:14:40;;;;;;;4.93;4.43;;;;;;;23.53;nan;-24470.16;4900180;29;20187;-66
2022/05/09 11:17:24;;;;;;;5.18;4.40;;;;;;;23.96;nan;-24481.72;4912902;29;20556;-66
2022/05/09 11:20:16;;;;;;;7.45;4.30;;;;;;;23.74;nan;-24475.94;4918519;29;20291;-66
2022/05/09 11:23:14;;;;;;;7.15;4.20;;;;;;;24.02;nan;-24483.41;4904361;29;20184;-66
2022/05/09 11:25:55;;;;;;;5.45;3.95;;;;;;;23.98;nan;-24482.44;4889042;29;20196;-66
2022/05/09 11:28:36;;;;;;;5.15;4.00;;;;;;;23.76;nan;-24476.50;4898957;29;20211;-68
2022/05/09 11:31:24;;;;;;;6.00;4.25;;;;;;;23.55;nan;-24470.56;4898943;29;20180;-66
2022/05/09 11:34:08;;;;;;;4.78;3.67;;;;;;;23.60;nan;-24472.06;4897221;29;20199;-68
2022/05/09 11:36:52;;;;;;;6.00;4.18;;;;;;;23.32;nan;-24464.34;4896898;29;20240;-70
2022/05/09 11:40:02;;;;;;;6.88;4.25;;;;;;;23.04;nan;-24456.75;4909338;29;20191;-66
2022/05/09 11:45:58;;;;;;;5.07;3.97;;;;;;;23.59;nan;-24471.81;4861025;29;20200;-66
2022/05/09 11:48:48;;;;;;;8.07;4.10;;;;;;;23.62;nan;-24472.50;4894641;29;20224;-68
2022/05/09 11:51:39;;;;;;;4.85;3.95;;;;;;;23.93;nan;-24480.91;4898142;29;20180;-67
2022/05/09 11:54:08;;;;;;;5.82;3.53;;;;;;;23.78;nan;-24477.03;4911573;29;20727;-67
2022/05/09 11:56:38;;;;;;;4.93;3.85;;;;;;;24.19;nan;-24488.09;4897562;29;20195;-69
2022/05/09 11:59:04;;;;;;;4.93;3.58;;;;;;;24.04;nan;-24483.94;4896175;29;20790;-67
2022/05/09 12:01:52;;;;;;;8.38;3.40;;;;;;;24.00;nan;-24482.84;4897426;29;20266;-66
2022/05/09 12:04:29;;;;;;;6.47;3.35;;;;;;;24.09;nan;-24485.47;4896471;29;20188;-62